createdAt,value
2022-12-12T00:00:25.652Z,0
2022-12-12T00:01:25.669Z,0
2022-12-12T00:02:25.775Z,0
2022-12-12T00:03:25.841Z,0
2022-12-12T00:04:25.669Z,0
2022-12-12T00:05:25.665Z,0
2022-12-12T00:06:25.667Z,0
2022-12-12T00:07:25.876Z,0
2022-12-12T00:08:25.740Z,0
2022-12-12T00:09:25.672Z,0
2022-12-12T00:10:25.669Z,0
2022-12-12T00:11:25.675Z,0
2022-12-12T00:12:25.677Z,0
2022-12-12T00:13:25.672Z,0
2022-12-12T00:14:25.663Z,0
2022-12-12T00:15:25.669Z,0
2022-12-12T00:16:25.756Z,0
2022-12-12T00:17:25.683Z,0
2022-12-12T00:18:25.676Z,0
2022-12-12T00:19:25.658Z,0
2022-12-12T00:20:25.673Z,0
2022-12-12T00:21:25.662Z,0
2022-12-12T00:22:25.681Z,0
2022-12-12T00:23:25.667Z,0
2022-12-12T00:24:25.688Z,0
2022-12-12T00:25:25.673Z,0
2022-12-12T00:26:25.669Z,0
2022-12-12T00:27:25.697Z,0
2022-12-12T00:28:25.647Z,0
2022-12-12T00:29:25.654Z,0
2022-12-12T00:30:25.679Z,0
2022-12-12T00:31:25.654Z,0
2022-12-12T00:32:25.668Z,0
2022-12-12T00:33:25.647Z,0
2022-12-12T00:34:25.653Z,0
2022-12-12T00:35:25.654Z,0
2022-12-12T00:36:25.650Z,0
2022-12-12T00:37:25.673Z,0
2022-12-12T00:38:25.647Z,0
2022-12-12T00:39:25.656Z,0
2022-12-12T00:40:25.645Z,0
2022-12-12T00:41:25.662Z,0
2022-12-12T00:42:25.669Z,0
2022-12-12T00:43:25.648Z,0
2022-12-12T00:44:25.657Z,0
2022-12-12T00:45:25.649Z,0
2022-12-12T00:46:25.720Z,0
2022-12-12T00:47:25.663Z,0
2022-12-12T00:48:25.648Z,0
2022-12-12T00:49:25.659Z,0
2022-12-12T00:50:25.665Z,0
2022-12-12T00:51:25.655Z,0
2022-12-12T00:52:25.686Z,0
2022-12-12T00:53:25.669Z,0
2022-12-12T00:54:25.664Z,0
2022-12-12T00:55:25.665Z,0
2022-12-12T00:56:25.672Z,0
2022-12-12T00:57:25.678Z,0
2022-12-12T00:58:25.673Z,0
2022-12-12T00:59:25.672Z,0
2022-12-12T01:00:25.660Z,0
2022-12-12T01:01:25.735Z,0
2022-12-12T01:02:28.348Z,0
2022-12-12T01:03:25.665Z,0
2022-12-12T01:04:25.663Z,0
2022-12-12T01:05:25.655Z,0
2022-12-12T01:06:25.670Z,0
2022-12-12T01:07:25.710Z,0
2022-12-12T01:08:25.769Z,0
2022-12-12T01:09:25.668Z,0
2022-12-12T01:10:25.669Z,0
2022-12-12T01:11:25.668Z,0
2022-12-12T01:12:25.765Z,0
2022-12-12T01:13:25.663Z,0
2022-12-12T01:14:25.661Z,0
2022-12-12T01:15:25.669Z,0
2022-12-12T01:16:25.751Z,0
2022-12-12T01:17:25.683Z,0
2022-12-12T01:18:25.666Z,0
2022-12-12T01:19:25.669Z,0
2022-12-12T01:20:25.677Z,0
2022-12-12T01:21:25.662Z,0
2022-12-12T01:22:25.680Z,0
2022-12-12T01:23:25.665Z,0
2022-12-12T01:24:25.687Z,0
2022-12-12T01:25:25.671Z,0
2022-12-12T01:26:25.716Z,0
2022-12-12T01:27:25.674Z,0
2022-12-12T01:28:25.663Z,0
2022-12-12T01:29:25.661Z,0
2022-12-12T01:30:25.652Z,0
2022-12-12T01:31:25.729Z,0
2022-12-12T01:32:25.675Z,0
2022-12-12T01:33:25.660Z,0
2022-12-12T01:34:25.668Z,0
2022-12-12T01:35:25.672Z,0
2022-12-12T01:36:25.664Z,0
2022-12-12T01:37:25.683Z,0
2022-12-12T01:38:25.666Z,0
2022-12-12T01:39:25.675Z,0
2022-12-12T01:40:25.649Z,0
2022-12-12T01:41:25.650Z,0
2022-12-12T01:42:25.665Z,0
2022-12-12T01:43:25.677Z,0
2022-12-12T01:44:25.651Z,0
2022-12-12T01:45:25.653Z,0
2022-12-12T01:46:25.703Z,0
2022-12-12T01:47:25.660Z,0
2022-12-12T01:48:25.652Z,0
2022-12-12T01:49:25.648Z,0
2022-12-12T01:50:25.650Z,0
2022-12-12T01:51:25.654Z,0
2022-12-12T01:52:25.660Z,0
2022-12-12T01:53:25.651Z,0
2022-12-12T01:54:25.646Z,0
2022-12-12T01:55:25.651Z,0
2022-12-12T01:56:25.654Z,0
2022-12-12T01:57:25.665Z,0
2022-12-12T01:58:25.758Z,0
2022-12-12T01:59:25.646Z,0
2022-12-12T02:00:25.711Z,0
2022-12-12T02:01:25.654Z,0
2022-12-12T02:02:25.741Z,0
2022-12-12T02:03:25.660Z,0
2022-12-12T02:04:25.667Z,0
2022-12-12T02:05:25.666Z,0
2022-12-12T02:06:25.671Z,0
2022-12-12T02:07:25.679Z,0
2022-12-12T02:08:25.725Z,0
2022-12-12T02:09:25.666Z,0
2022-12-12T02:10:25.672Z,0
2022-12-12T02:11:25.665Z,0
2022-12-12T02:12:25.676Z,0
2022-12-12T02:13:25.693Z,0
2022-12-12T02:14:25.675Z,0
2022-12-12T02:15:25.670Z,0
2022-12-12T02:16:25.739Z,0
2022-12-12T02:17:25.684Z,0
2022-12-12T02:18:25.665Z,0
2022-12-12T02:19:25.666Z,0
2022-12-12T02:20:25.672Z,0
2022-12-12T02:21:25.749Z,0
2022-12-12T02:22:25.676Z,0
2022-12-12T02:23:25.671Z,0
2022-12-12T02:24:26.061Z,0
2022-12-12T02:25:25.674Z,0
2022-12-12T02:26:25.662Z,0
2022-12-12T02:27:25.683Z,0
2022-12-12T02:28:25.662Z,0
2022-12-12T02:29:25.667Z,0
2022-12-12T02:30:25.653Z,0
2022-12-12T02:31:25.681Z,0
2022-12-12T02:32:25.691Z,0
2022-12-12T02:33:25.668Z,0
2022-12-12T02:34:25.668Z,0
2022-12-12T02:35:25.676Z,0
2022-12-12T02:36:25.653Z,0
2022-12-12T02:37:25.685Z,0
2022-12-12T02:38:25.657Z,0
2022-12-12T02:39:25.661Z,0
2022-12-12T02:40:25.655Z,0
2022-12-12T02:41:25.764Z,0
2022-12-12T02:42:25.677Z,0
2022-12-12T02:43:25.660Z,0
2022-12-12T02:44:25.812Z,0
2022-12-12T02:45:25.662Z,0
2022-12-12T02:46:25.753Z,0
2022-12-12T02:47:25.675Z,0
2022-12-12T02:48:25.665Z,0
2022-12-12T02:49:25.643Z,0
2022-12-12T02:50:25.696Z,0
2022-12-12T02:51:25.646Z,0
2022-12-12T02:52:25.657Z,0
2022-12-12T02:53:25.648Z,0
2022-12-12T02:54:25.641Z,0
2022-12-12T02:55:25.652Z,0
2022-12-12T02:56:25.641Z,0
2022-12-12T02:57:25.661Z,0
2022-12-12T02:58:25.648Z,0
2022-12-12T02:59:25.646Z,0
2022-12-12T03:00:25.651Z,0
2022-12-12T03:01:25.657Z,0
2022-12-12T03:02:25.713Z,0
2022-12-12T03:03:25.651Z,0
2022-12-12T03:04:25.645Z,0
2022-12-12T03:05:25.648Z,0
2022-12-12T03:06:25.649Z,0
2022-12-12T03:07:25.766Z,0
2022-12-12T03:08:25.667Z,0
2022-12-12T03:09:25.640Z,0
2022-12-12T03:10:25.665Z,0
2022-12-12T03:11:25.665Z,0
2022-12-12T03:12:25.666Z,0
2022-12-12T03:13:25.653Z,0
2022-12-12T03:14:25.657Z,0
2022-12-12T03:15:25.662Z,0
2022-12-12T03:16:25.733Z,0
2022-12-12T03:17:25.674Z,0
2022-12-12T03:18:25.663Z,0
2022-12-12T03:19:25.665Z,0
2022-12-12T03:20:25.664Z,0
2022-12-12T03:21:25.658Z,0
2022-12-12T03:22:25.683Z,0
2022-12-12T03:23:25.657Z,0
2022-12-12T03:24:25.654Z,0
2022-12-12T03:25:25.660Z,0
2022-12-12T03:26:25.657Z,0
2022-12-12T03:27:25.673Z,0
2022-12-12T03:28:25.661Z,0
2022-12-12T03:29:25.664Z,0
2022-12-12T03:30:25.735Z,0
2022-12-12T03:31:25.712Z,0
2022-12-12T03:32:25.676Z,0
2022-12-12T03:33:25.667Z,0
2022-12-12T03:34:25.655Z,0
2022-12-12T03:35:25.661Z,0
2022-12-12T03:36:25.660Z,0
2022-12-12T03:37:25.675Z,0
2022-12-12T03:38:25.661Z,0
2022-12-12T03:39:25.658Z,0
2022-12-12T03:40:25.664Z,0
2022-12-12T03:41:25.674Z,0
2022-12-12T03:42:25.676Z,0
2022-12-12T03:43:25.662Z,0
2022-12-12T03:44:25.662Z,0
2022-12-12T03:45:25.696Z,0
2022-12-12T03:46:25.662Z,0
2022-12-12T03:47:25.670Z,0
2022-12-12T03:48:25.664Z,0
2022-12-12T03:49:25.659Z,0
2022-12-12T03:50:25.661Z,0
2022-12-12T03:51:25.654Z,0
2022-12-12T03:52:25.667Z,0
2022-12-12T03:53:25.730Z,0
2022-12-12T03:54:25.658Z,0
2022-12-12T03:55:25.662Z,0
2022-12-12T03:56:25.643Z,0
2022-12-12T03:57:25.663Z,0
2022-12-12T03:58:25.643Z,0
2022-12-12T03:59:27.515Z,0
2022-12-12T04:00:25.641Z,0
2022-12-12T04:01:25.707Z,0
2022-12-12T04:02:25.701Z,0
2022-12-12T04:03:25.641Z,0
2022-12-12T04:04:25.646Z,0
2022-12-12T04:05:25.644Z,0
2022-12-12T04:06:25.708Z,0
2022-12-12T04:07:25.668Z,0
2022-12-12T04:08:25.736Z,0
2022-12-12T04:09:25.644Z,0
2022-12-12T04:10:25.647Z,0
2022-12-12T04:11:25.642Z,0
2022-12-12T04:12:25.657Z,0
2022-12-12T04:13:30.381Z,0
2022-12-12T04:14:25.643Z,0
2022-12-12T04:15:25.644Z,0
2022-12-12T04:16:25.676Z,0
2022-12-12T04:17:25.669Z,0
2022-12-12T04:18:25.664Z,0
2022-12-12T04:19:25.657Z,0
2022-12-12T04:20:25.723Z,0
2022-12-12T04:21:25.658Z,0
2022-12-12T04:22:27.408Z,0
2022-12-12T04:23:25.664Z,0
2022-12-12T04:24:25.653Z,0
2022-12-12T04:25:25.662Z,0
2022-12-12T04:26:25.657Z,0
2022-12-12T04:27:25.679Z,0
2022-12-12T04:28:25.657Z,0
2022-12-12T04:29:25.665Z,0
2022-12-12T04:30:25.646Z,0
2022-12-12T04:31:25.682Z,0
2022-12-12T04:32:25.667Z,0
2022-12-12T04:33:25.664Z,0
2022-12-12T04:34:25.656Z,0
2022-12-12T04:35:51.956Z,0
2022-12-12T04:36:50.874Z,0
2022-12-12T04:37:50.872Z,0
2022-12-12T04:38:50.869Z,0
2022-12-12T04:39:50.859Z,0
2022-12-12T04:40:50.863Z,0
2022-12-12T04:41:50.863Z,0
2022-12-12T04:42:50.873Z,0
2022-12-12T04:43:50.851Z,0
2022-12-12T04:44:50.855Z,0
2022-12-12T04:45:50.927Z,0
2022-12-12T04:46:50.855Z,0
2022-12-12T04:47:50.887Z,0
2022-12-12T04:48:53.424Z,0
2022-12-12T04:49:50.847Z,0
2022-12-12T04:50:50.856Z,0
2022-12-12T04:51:50.857Z,0
2022-12-12T04:52:50.871Z,0
2022-12-12T04:53:50.841Z,0
2022-12-12T04:54:50.861Z,0
2022-12-12T04:55:50.850Z,0
2022-12-12T04:56:50.833Z,0
2022-12-12T04:57:50.866Z,0
2022-12-12T04:58:50.851Z,0
2022-12-12T04:59:50.851Z,0
2022-12-12T05:00:50.894Z,0
2022-12-12T05:01:53.400Z,0
2022-12-12T05:02:50.920Z,0
2022-12-12T05:03:50.855Z,0
2022-12-12T05:04:50.843Z,0
2022-12-12T05:05:50.858Z,0
2022-12-12T05:06:50.837Z,0
2022-12-12T05:07:50.894Z,0
2022-12-12T05:08:50.845Z,0
2022-12-12T05:09:50.838Z,0
2022-12-12T05:10:50.833Z,0
2022-12-12T05:11:50.835Z,0
2022-12-12T05:12:50.839Z,0
2022-12-12T05:13:50.836Z,0
2022-12-12T05:14:50.826Z,0
2022-12-12T05:15:50.826Z,0
2022-12-12T05:16:50.896Z,0
2022-12-12T05:17:50.849Z,0
2022-12-12T05:18:50.833Z,0
2022-12-12T05:19:50.828Z,0
2022-12-12T05:20:50.830Z,0
2022-12-12T05:21:50.830Z,0
2022-12-12T05:22:50.844Z,0
2022-12-12T05:23:50.823Z,0
2022-12-12T05:24:50.824Z,0
2022-12-12T05:25:50.826Z,0
2022-12-12T05:26:50.832Z,0
2022-12-12T05:27:50.843Z,0
2022-12-12T05:28:50.827Z,0
2022-12-12T05:29:50.823Z,0
2022-12-12T05:30:50.862Z,0
2022-12-12T05:31:50.831Z,0
2022-12-12T05:32:50.845Z,0
2022-12-12T05:33:50.828Z,0
2022-12-12T05:34:50.829Z,0
2022-12-12T05:35:50.824Z,0
2022-12-12T05:36:50.825Z,0
2022-12-12T05:37:52.068Z,0
2022-12-12T05:38:50.842Z,0
2022-12-12T05:39:50.837Z,0
2022-12-12T05:40:50.828Z,0
2022-12-12T05:41:50.849Z,0
2022-12-12T05:42:50.849Z,0
2022-12-12T05:43:50.851Z,0
2022-12-12T05:44:50.854Z,0
2022-12-12T05:45:50.937Z,0
2022-12-12T05:46:50.828Z,0
2022-12-12T05:47:50.860Z,0
2022-12-12T05:48:50.960Z,0
2022-12-12T05:49:50.845Z,0
2022-12-12T05:50:50.828Z,0
2022-12-12T05:51:50.849Z,0
2022-12-12T05:52:50.862Z,0
2022-12-12T05:53:50.847Z,0
2022-12-12T05:54:50.848Z,0
2022-12-12T05:55:50.839Z,0
2022-12-12T05:56:50.854Z,0
2022-12-12T05:57:50.861Z,0
2022-12-12T05:58:50.846Z,0
2022-12-12T05:59:50.857Z,0
2022-12-12T06:00:50.845Z,0
2022-12-12T06:01:50.848Z,0
2022-12-12T06:02:50.860Z,0
2022-12-12T06:03:50.904Z,0
2022-12-12T06:04:50.849Z,0
2022-12-12T06:05:50.849Z,0
2022-12-12T06:06:50.846Z,0
2022-12-12T06:07:50.924Z,0
2022-12-12T06:08:50.853Z,0
2022-12-12T06:09:50.849Z,0
2022-12-12T06:10:50.843Z,0
2022-12-12T06:11:50.840Z,0
2022-12-12T06:12:50.857Z,0
2022-12-12T06:13:50.824Z,0
2022-12-12T06:14:50.840Z,0
2022-12-12T06:15:50.905Z,0
2022-12-12T06:16:50.846Z,0
2022-12-12T06:17:50.861Z,0
2022-12-12T06:18:50.847Z,0
2022-12-12T06:19:50.847Z,0
2022-12-12T06:20:50.855Z,0
2022-12-12T06:21:50.854Z,0
2022-12-12T06:22:53.782Z,0
2022-12-12T06:23:50.847Z,0
2022-12-12T06:24:50.837Z,0
2022-12-12T06:25:50.843Z,0
2022-12-12T06:26:50.943Z,0
2022-12-12T06:27:50.863Z,0
2022-12-12T06:28:50.826Z,0
2022-12-12T06:29:50.844Z,0
2022-12-12T06:30:50.873Z,0
2022-12-12T06:31:50.851Z,1
2022-12-12T06:32:50.865Z,1
2022-12-12T06:33:50.848Z,3
2022-12-12T06:34:50.834Z,3
2022-12-12T06:35:50.843Z,3
2022-12-12T06:36:50.827Z,5
2022-12-12T06:37:50.841Z,5
2022-12-12T06:38:50.836Z,5
2022-12-12T06:39:50.840Z,7
2022-12-12T06:40:50.826Z,9
2022-12-12T06:41:50.824Z,9
2022-12-12T06:42:50.838Z,11
2022-12-12T06:43:50.824Z,12
2022-12-12T06:44:50.825Z,14
2022-12-12T06:45:50.828Z,16
2022-12-12T06:46:50.826Z,18
2022-12-12T06:47:50.840Z,22
2022-12-12T06:48:50.829Z,23
2022-12-12T06:49:50.825Z,23
2022-12-12T06:50:50.824Z,25
2022-12-12T06:51:50.821Z,27
2022-12-12T06:52:50.843Z,29
2022-12-12T06:53:50.864Z,35
2022-12-12T06:54:50.823Z,38
2022-12-12T06:55:50.820Z,40
2022-12-12T06:56:50.821Z,42
2022-12-12T06:57:50.843Z,42
2022-12-12T06:58:50.825Z,42
2022-12-12T06:59:50.823Z,44
2022-12-12T07:00:50.852Z,46
2022-12-12T07:01:50.917Z,49
2022-12-12T07:02:50.865Z,51
2022-12-12T07:03:50.857Z,51
2022-12-12T07:04:50.840Z,51
2022-12-12T07:05:50.843Z,55
2022-12-12T07:06:50.829Z,60
2022-12-12T07:07:50.920Z,66
2022-12-12T07:08:50.841Z,66
2022-12-12T07:09:50.834Z,73
2022-12-12T07:10:50.846Z,75
2022-12-12T07:11:50.846Z,75
2022-12-12T07:12:55.989Z,77
2022-12-12T07:13:50.842Z,81
2022-12-12T07:14:50.848Z,84
2022-12-12T07:15:50.907Z,90
2022-12-12T07:16:50.852Z,97
2022-12-12T07:17:50.851Z,103
2022-12-12T07:18:50.843Z,110
2022-12-12T07:19:50.841Z,117
2022-12-12T07:20:50.842Z,129
2022-12-12T07:21:50.909Z,140
2022-12-12T07:22:50.859Z,147
2022-12-12T07:23:50.853Z,160
2022-12-12T07:24:50.848Z,173
2022-12-12T07:25:50.845Z,184
2022-12-12T07:26:50.847Z,193
2022-12-12T07:27:50.855Z,204
2022-12-12T07:28:50.853Z,211
2022-12-12T07:29:50.853Z,215
2022-12-12T07:30:50.881Z,215
2022-12-12T07:31:50.839Z,235
2022-12-12T07:32:50.863Z,243
2022-12-12T07:33:50.823Z,250
2022-12-12T07:34:50.842Z,259
2022-12-12T07:35:50.849Z,263
2022-12-12T07:36:50.841Z,272
2022-12-12T07:37:50.841Z,282
2022-12-12T07:38:50.851Z,282
2022-12-12T07:39:50.844Z,285
2022-12-12T07:40:50.849Z,289
2022-12-12T07:41:50.853Z,289
2022-12-12T07:42:50.860Z,287
2022-12-12T07:43:50.904Z,294
2022-12-12T07:44:50.841Z,305
2022-12-12T07:45:50.842Z,322
2022-12-12T07:46:50.865Z,335
2022-12-12T07:47:50.848Z,335
2022-12-12T07:48:50.847Z,348
2022-12-12T07:49:50.834Z,368
2022-12-12T07:50:50.824Z,387
2022-12-12T07:51:50.827Z,401
2022-12-12T07:52:50.846Z,418
2022-12-12T07:53:50.826Z,420
2022-12-12T07:54:50.829Z,433
2022-12-12T07:55:50.827Z,444
2022-12-12T07:56:50.826Z,444
2022-12-12T07:57:50.845Z,442
2022-12-12T07:58:50.826Z,431
2022-12-12T07:59:50.829Z,427
2022-12-12T08:00:50.831Z,422
2022-12-12T08:01:50.851Z,427
2022-12-12T08:02:50.839Z,444
2022-12-12T08:03:50.822Z,475
2022-12-12T08:04:50.928Z,506
2022-12-12T08:05:50.826Z,521
2022-12-12T08:06:57.607Z,543
2022-12-12T08:07:50.903Z,552
2022-12-12T08:08:50.844Z,552
2022-12-12T08:09:50.826Z,571
2022-12-12T08:10:50.888Z,582
2022-12-12T08:11:50.822Z,589
2022-12-12T08:12:50.843Z,606
2022-12-12T08:13:50.857Z,599
2022-12-12T08:14:50.843Z,593
2022-12-12T08:15:50.897Z,591
2022-12-12T08:16:50.894Z,602
2022-12-12T08:17:50.840Z,595
2022-12-12T08:18:50.843Z,604
2022-12-12T08:19:50.835Z,606
2022-12-12T08:20:50.845Z,608
2022-12-12T08:21:50.844Z,623
2022-12-12T08:22:50.861Z,623
2022-12-12T08:23:50.845Z,635
2022-12-12T08:24:50.840Z,643
2022-12-12T08:25:50.836Z,637
2022-12-12T08:26:50.836Z,634
2022-12-12T08:27:50.855Z,648
2022-12-12T08:28:50.841Z,663
2022-12-12T08:29:50.835Z,676
2022-12-12T08:30:50.850Z,687
2022-12-12T08:31:50.847Z,702
2022-12-12T08:32:50.871Z,700
2022-12-12T08:33:50.865Z,722
2022-12-12T08:34:50.868Z,752
2022-12-12T08:35:50.853Z,785
2022-12-12T08:36:50.845Z,816
2022-12-12T08:37:50.859Z,831
2022-12-12T08:38:50.838Z,834
2022-12-12T08:39:55.460Z,823
2022-12-12T08:40:50.829Z,823
2022-12-12T08:41:50.840Z,777
2022-12-12T08:42:50.854Z,763
2022-12-12T08:43:50.841Z,787
2022-12-12T08:44:50.829Z,781
2022-12-12T08:45:50.845Z,775
2022-12-12T08:46:50.892Z,783
2022-12-12T08:47:50.935Z,787
2022-12-12T08:48:50.846Z,798
2022-12-12T08:49:50.845Z,798
2022-12-12T08:50:50.845Z,807
2022-12-12T08:51:50.836Z,825
2022-12-12T08:52:50.860Z,833
2022-12-12T08:53:50.841Z,831
2022-12-12T08:54:50.841Z,831
2022-12-12T08:55:50.837Z,838
2022-12-12T08:56:50.825Z,866
2022-12-12T08:57:50.861Z,906
2022-12-12T08:58:50.837Z,940
2022-12-12T08:59:50.840Z,969
2022-12-12T09:00:50.840Z,989
2022-12-12T09:01:50.976Z,1015
2022-12-12T09:02:50.946Z,1034
2022-12-12T09:03:50.839Z,1034
2022-12-12T09:04:50.827Z,1046
2022-12-12T09:05:50.826Z,1091
2022-12-12T09:06:50.829Z,1100
2022-12-12T09:07:50.937Z,1144
2022-12-12T09:08:50.823Z,1159
2022-12-12T09:09:50.825Z,1159
2022-12-12T09:10:50.838Z,1159
2022-12-12T09:11:50.822Z,1218
2022-12-12T09:12:50.842Z,1268
2022-12-12T09:13:50.829Z,1282
2022-12-12T09:14:50.828Z,1293
2022-12-12T09:15:50.874Z,1299
2022-12-12T09:16:50.825Z,1284
2022-12-12T09:17:50.844Z,1284
2022-12-12T09:18:50.825Z,1269
2022-12-12T09:19:50.826Z,1273
2022-12-12T09:20:50.826Z,1273
2022-12-12T09:21:50.821Z,1295
2022-12-12T09:22:50.837Z,1308
2022-12-12T09:23:50.823Z,1316
2022-12-12T09:24:50.821Z,1310
2022-12-12T09:25:50.826Z,1295
2022-12-12T09:26:50.825Z,1282
2022-12-12T09:27:50.843Z,1266
2022-12-12T09:28:50.845Z,1258
2022-12-12T09:29:50.847Z,1247
2022-12-12T09:30:50.848Z,1231
2022-12-12T09:31:50.916Z,1249
2022-12-12T09:32:50.853Z,1268
2022-12-12T09:33:50.833Z,1290
2022-12-12T09:34:50.848Z,1312
2022-12-12T09:35:50.839Z,1325
2022-12-12T09:36:50.843Z,1303
2022-12-12T09:37:50.872Z,1271
2022-12-12T09:38:50.843Z,1281
2022-12-12T09:39:50.833Z,1319
2022-12-12T09:40:50.856Z,1349
2022-12-12T09:41:50.841Z,1387
2022-12-12T09:42:50.863Z,1422
2022-12-12T09:43:50.850Z,1441
2022-12-12T09:44:50.846Z,1443
2022-12-12T09:45:50.896Z,1456
2022-12-12T09:46:50.844Z,1439
2022-12-12T09:47:50.884Z,1422
2022-12-12T09:48:50.841Z,1406
2022-12-12T09:49:50.841Z,1398
2022-12-12T09:50:50.849Z,1380
2022-12-12T09:51:50.832Z,1351
2022-12-12T09:52:50.860Z,1314
2022-12-12T09:53:50.843Z,1284
2022-12-12T09:54:50.846Z,1319
2022-12-12T09:55:50.835Z,1351
2022-12-12T09:56:50.850Z,1362
2022-12-12T09:57:50.857Z,1352
2022-12-12T09:58:55.373Z,1327
2022-12-12T09:59:50.845Z,1341
2022-12-12T10:00:50.889Z,1345
2022-12-12T10:01:50.849Z,1369
2022-12-12T10:02:50.865Z,1354
2022-12-12T10:03:50.841Z,1391
2022-12-12T10:04:51.206Z,1395
2022-12-12T10:06:01.940Z,1398
2022-12-12T10:06:50.832Z,1400
2022-12-12T10:07:50.913Z,1389
2022-12-12T10:08:50.846Z,1389
2022-12-12T10:09:50.843Z,1369
2022-12-12T10:10:50.836Z,1387
2022-12-12T10:11:50.888Z,1430
2022-12-12T10:12:50.859Z,1448
2022-12-12T10:13:50.838Z,1448
2022-12-12T10:14:50.829Z,1461
2022-12-12T10:15:50.822Z,1456
2022-12-12T10:16:57.292Z,1463
2022-12-12T10:17:50.839Z,1470
2022-12-12T10:18:50.824Z,1459
2022-12-12T10:19:50.820Z,1461
2022-12-12T10:20:50.821Z,1494
2022-12-12T10:21:50.826Z,1555
2022-12-12T10:22:50.843Z,1601
2022-12-12T10:23:50.828Z,1638
2022-12-12T10:24:50.826Z,1666
2022-12-12T10:25:50.827Z,1645
2022-12-12T10:26:50.827Z,1614
2022-12-12T10:27:50.842Z,1618
2022-12-12T10:28:50.830Z,1546
2022-12-12T10:29:51.015Z,1485
2022-12-12T10:30:50.826Z,1459
2022-12-12T10:31:50.879Z,1456
2022-12-12T10:32:50.841Z,1434
2022-12-12T10:33:50.826Z,1400
2022-12-12T10:34:50.825Z,1386
2022-12-12T10:35:50.844Z,1408
2022-12-12T10:36:50.828Z,1450
2022-12-12T10:37:50.842Z,1513
2022-12-12T10:38:50.826Z,1550
2022-12-12T10:39:50.829Z,1575
2022-12-12T10:40:50.838Z,1631
2022-12-12T10:41:50.821Z,1669
2022-12-12T10:42:50.836Z,1671
2022-12-12T10:43:50.832Z,1671
2022-12-12T10:44:50.841Z,1734
2022-12-12T10:45:50.865Z,1798
2022-12-12T10:46:50.891Z,1824
2022-12-12T10:47:50.861Z,1793
2022-12-12T10:48:50.842Z,1697
2022-12-12T10:49:50.839Z,1679
2022-12-12T10:50:50.842Z,1669
2022-12-12T10:51:50.838Z,1575
2022-12-12T10:52:50.857Z,1542
2022-12-12T10:53:50.843Z,1511
2022-12-12T10:54:50.846Z,1485
2022-12-12T10:55:50.839Z,1470
2022-12-12T10:56:50.848Z,1408
2022-12-12T10:57:50.853Z,1352
2022-12-12T10:58:50.841Z,1345
2022-12-12T10:59:50.864Z,1340
2022-12-12T11:00:50.881Z,1325
2022-12-12T11:02:09.827Z,1351
2022-12-12T11:02:54.316Z,1354
2022-12-12T11:03:50.845Z,1424
2022-12-12T11:04:50.845Z,1476
2022-12-12T11:05:50.860Z,1459
2022-12-12T11:06:50.841Z,1500
2022-12-12T11:07:50.886Z,1544
2022-12-12T11:08:50.886Z,1544
2022-12-12T11:09:50.842Z,1559
2022-12-12T11:10:50.836Z,1568
2022-12-12T11:11:50.843Z,1585
2022-12-12T11:12:50.848Z,1609
2022-12-12T11:13:50.846Z,1622
2022-12-12T11:14:50.831Z,1590
2022-12-12T11:15:50.843Z,1539
2022-12-12T11:16:50.921Z,1542
2022-12-12T11:17:50.868Z,1587
2022-12-12T11:18:50.846Z,1623
2022-12-12T11:19:50.838Z,1644
2022-12-12T11:20:50.838Z,1666
2022-12-12T11:21:50.836Z,1638
2022-12-12T11:22:50.854Z,1677
2022-12-12T11:23:50.838Z,1629
2022-12-12T11:24:50.841Z,1585
2022-12-12T11:25:50.843Z,1483
2022-12-12T11:26:50.842Z,1467
2022-12-12T11:27:50.859Z,1463
2022-12-12T11:28:50.843Z,1426
2022-12-12T11:29:50.862Z,1430
2022-12-12T11:30:50.835Z,1430
2022-12-12T11:31:50.861Z,1426
2022-12-12T11:32:50.838Z,1404
2022-12-12T11:33:50.832Z,1400
2022-12-12T11:34:50.827Z,1369
2022-12-12T11:35:50.829Z,1367
2022-12-12T11:36:50.822Z,1345
2022-12-12T11:37:50.841Z,1330
2022-12-12T11:38:50.857Z,1288
2022-12-12T11:39:50.876Z,1251
2022-12-12T11:40:50.825Z,1212
2022-12-12T11:41:50.828Z,1179
2022-12-12T11:42:50.841Z,1164
2022-12-12T11:43:50.856Z,1152
2022-12-12T11:44:50.826Z,1131
2022-12-12T11:45:50.937Z,1140
2022-12-12T11:46:50.826Z,1164
2022-12-12T11:47:50.843Z,1175
2022-12-12T11:48:50.828Z,1220
2022-12-12T11:49:50.868Z,1231
2022-12-12T11:50:50.838Z,1229
2022-12-12T11:51:50.821Z,1209
2022-12-12T11:52:50.836Z,1231
2022-12-12T11:53:50.828Z,1223
2022-12-12T11:54:50.825Z,1209
2022-12-12T11:55:50.958Z,1159
2022-12-12T11:56:50.838Z,1113
2022-12-12T11:57:50.849Z,1081
2022-12-12T11:58:50.849Z,1087
2022-12-12T11:59:50.915Z,1083
2022-12-12T12:00:50.844Z,1065
2022-12-12T12:01:50.844Z,1080
2022-12-12T12:02:50.904Z,1074
2022-12-12T12:03:50.843Z,1024
2022-12-12T12:04:53.315Z,975
2022-12-12T12:05:50.841Z,956
2022-12-12T12:06:50.837Z,949
2022-12-12T12:07:50.926Z,938
2022-12-12T12:08:50.838Z,938
2022-12-12T12:09:50.823Z,928
2022-12-12T12:10:50.846Z,943
2022-12-12T12:11:50.849Z,965
2022-12-12T12:12:50.871Z,984
2022-12-12T12:13:50.841Z,993
2022-12-12T12:14:50.840Z,989
2022-12-12T12:15:50.839Z,993
2022-12-12T12:16:51.005Z,1010
2022-12-12T12:17:50.852Z,1026
2022-12-12T12:18:50.833Z,1032
2022-12-12T12:19:50.841Z,1050
2022-12-12T12:20:50.841Z,1080
2022-12-12T12:21:50.838Z,1076
2022-12-12T12:22:50.858Z,1063
2022-12-12T12:23:50.847Z,1046
2022-12-12T12:24:50.848Z,1004
2022-12-12T12:25:50.842Z,978
2022-12-12T12:26:50.842Z,984
2022-12-12T12:27:50.859Z,980
2022-12-12T12:28:50.847Z,954
2022-12-12T12:29:50.847Z,938
2022-12-12T12:30:50.881Z,943
2022-12-12T12:31:50.839Z,954
2022-12-12T12:32:50.858Z,971
2022-12-12T12:33:50.836Z,980
2022-12-12T12:34:50.839Z,971
2022-12-12T12:35:50.821Z,967
2022-12-12T12:36:50.846Z,956
2022-12-12T12:37:50.857Z,941
2022-12-12T12:38:50.846Z,908
2022-12-12T12:39:50.834Z,908
2022-12-12T12:40:50.839Z,873
2022-12-12T12:41:50.825Z,873
2022-12-12T12:42:50.845Z,866
2022-12-12T12:43:50.856Z,868
2022-12-12T12:44:50.822Z,868
2022-12-12T12:45:50.868Z,855
2022-12-12T12:46:50.819Z,846
2022-12-12T12:47:50.837Z,847
2022-12-12T12:48:50.822Z,846
2022-12-12T12:49:50.821Z,853
2022-12-12T12:50:50.824Z,853
2022-12-12T12:51:50.886Z,851
2022-12-12T12:52:50.844Z,831
2022-12-12T12:53:50.915Z,812
2022-12-12T12:54:50.830Z,807
2022-12-12T12:55:50.827Z,790
2022-12-12T12:56:50.818Z,777
2022-12-12T12:57:50.835Z,783
2022-12-12T12:58:50.822Z,774
2022-12-12T12:59:50.823Z,774
2022-12-12T13:00:50.826Z,774
2022-12-12T13:01:50.926Z,775
2022-12-12T13:02:50.880Z,794
2022-12-12T13:03:50.825Z,814
2022-12-12T13:04:50.846Z,814
2022-12-12T13:05:50.825Z,811
2022-12-12T13:06:50.847Z,799
2022-12-12T13:07:50.880Z,796
2022-12-12T13:08:50.843Z,796
2022-12-12T13:09:50.845Z,792
2022-12-12T13:10:50.840Z,790
2022-12-12T13:11:50.840Z,787
2022-12-12T13:12:50.860Z,770
2022-12-12T13:13:50.840Z,740
2022-12-12T13:14:50.853Z,740
2022-12-12T13:15:50.859Z,728
2022-12-12T13:16:50.844Z,718
2022-12-12T13:17:50.857Z,704
2022-12-12T13:18:50.818Z,693
2022-12-12T13:19:50.846Z,691
2022-12-12T13:20:50.839Z,670
2022-12-12T13:21:50.840Z,659
2022-12-12T13:22:50.854Z,643
2022-12-12T13:23:50.841Z,635
2022-12-12T13:24:56.313Z,632
2022-12-12T13:25:50.837Z,626
2022-12-12T13:26:50.831Z,615
2022-12-12T13:27:50.851Z,613
2022-12-12T13:28:50.839Z,608
2022-12-12T13:29:50.838Z,595
2022-12-12T13:30:50.878Z,595
2022-12-12T13:31:50.826Z,589
2022-12-12T13:32:50.860Z,597
2022-12-12T13:33:50.848Z,587
2022-12-12T13:34:50.845Z,584
2022-12-12T13:35:50.859Z,569
2022-12-12T13:36:50.846Z,567
2022-12-12T13:37:50.853Z,564
2022-12-12T13:38:50.846Z,556
2022-12-12T13:39:50.841Z,547
2022-12-12T13:40:50.835Z,532
2022-12-12T13:41:50.835Z,530
2022-12-12T13:42:50.858Z,545
2022-12-12T13:43:50.845Z,552
2022-12-12T13:44:50.833Z,549
2022-12-12T13:45:50.911Z,547
2022-12-12T13:46:50.845Z,558
2022-12-12T13:47:50.854Z,573
2022-12-12T13:48:50.845Z,549
2022-12-12T13:49:50.839Z,545
2022-12-12T13:50:50.835Z,551
2022-12-12T13:51:50.839Z,547
2022-12-12T13:52:50.849Z,536
2022-12-12T13:53:50.835Z,530
2022-12-12T13:54:50.817Z,530
2022-12-12T13:55:50.827Z,523
2022-12-12T13:56:50.826Z,514
2022-12-12T13:57:50.837Z,493
2022-12-12T13:58:50.820Z,482
2022-12-12T13:59:50.828Z,462
2022-12-12T14:00:50.830Z,451
2022-12-12T14:01:50.960Z,438
2022-12-12T14:02:50.974Z,420
2022-12-12T14:03:50.823Z,399
2022-12-12T14:04:50.820Z,387
2022-12-12T14:05:50.823Z,377
2022-12-12T14:06:50.821Z,376
2022-12-12T14:07:50.966Z,370
2022-12-12T14:08:50.823Z,364